createdAt,value
2022-07-28T00:02:58.270Z,15.26
2022-07-28T00:06:00.521Z,15.22
2022-07-28T00:09:02.854Z,15.24
2022-07-28T00:12:05.534Z,15.23
2022-07-28T00:15:08.064Z,15.23
2022-07-28T00:18:09.995Z,15.23
2022-07-28T00:21:12.443Z,15.24
2022-07-28T00:24:14.813Z,15.27
2022-07-28T00:27:19.337Z,15.26
2022-07-28T00:30:21.714Z,15.26
2022-07-28T00:33:24.205Z,15.23
2022-07-28T00:36:26.944Z,15.22
2022-07-28T00:39:29.255Z,15.19
2022-07-28T00:42:31.535Z,15.16
2022-07-28T00:45:33.719Z,15.09
2022-07-28T00:48:40.255Z,15.07
2022-07-28T00:51:42.624Z,15.14
2022-07-28T00:54:44.918Z,15.07
2022-07-28T00:57:47.272Z,15.03
2022-07-28T01:00:49.361Z,14.99
2022-07-28T01:03:58.144Z,14.95
2022-07-28T01:07:15.289Z,14.88
2022-07-28T01:10:28.944Z,14.78
2022-07-28T01:13:52.528Z,14.69
2022-07-28T01:17:04.425Z,14.71
2022-07-28T01:20:21.838Z,14.64
2022-07-28T01:23:33.369Z,14.68
2022-07-28T01:26:44.320Z,14.59
2022-07-28T01:29:55.597Z,14.61
2022-07-28T01:33:04.886Z,14.64
2022-07-28T01:36:10.962Z,14.61
2022-07-28T01:39:15.021Z,14.46
2022-07-28T01:42:20.234Z,14.45
2022-07-28T01:45:25.052Z,14.42
2022-07-28T01:48:28.891Z,14.45
2022-07-28T01:51:32.554Z,14.38
2022-07-28T01:54:38.950Z,14.31
2022-07-28T01:57:41.725Z,14.31
2022-07-28T02:00:49.783Z,14.38
2022-07-28T02:03:52.605Z,14.25
2022-07-28T02:06:56.921Z,14.30
2022-07-28T02:10:00.582Z,14.22
2022-07-28T02:13:04.210Z,14.31
2022-07-28T02:16:10.201Z,14.28
2022-07-28T02:19:14.343Z,14.18
2022-07-28T02:22:17.187Z,14.30
2022-07-28T02:25:21.316Z,14.34
2022-07-28T02:28:26.806Z,14.31
2022-07-28T02:31:32.308Z,14.31
2022-07-28T02:34:38.628Z,14.31
2022-07-28T02:37:50.655Z,14.35
2022-07-28T02:40:55.741Z,14.35
2022-07-28T02:44:03.650Z,14.32
2022-07-28T02:47:09.274Z,14.28
2022-07-28T02:50:15.517Z,14.35
2022-07-28T02:53:18.175Z,14.40
2022-07-28T02:56:20.796Z,14.41
2022-07-28T02:59:24.086Z,14.44
2022-07-28T03:02:26.541Z,14.48
2022-07-28T03:05:29.112Z,14.45
2022-07-28T03:08:31.670Z,14.41
2022-07-28T03:11:33.813Z,14.42
2022-07-28T03:14:36.327Z,14.48
2022-07-28T03:17:38.639Z,14.42
2022-07-28T03:20:40.949Z,14.42
2022-07-28T03:23:48.098Z,14.44
2022-07-28T03:27:03.070Z,14.42
2022-07-28T03:30:12.786Z,14.49
2022-07-28T03:33:16.646Z,14.49
2022-07-28T03:36:24.759Z,14.48
2022-07-28T03:39:32.448Z,14.49
2022-07-28T03:42:35.688Z,14.48
2022-07-28T03:45:41.002Z,14.49
2022-07-28T03:48:43.435Z,14.42
2022-07-28T03:51:45.906Z,14.45
2022-07-28T03:54:47.983Z,14.35
2022-07-28T03:57:50.332Z,14.44
2022-07-28T04:00:52.633Z,14.45
2022-07-28T04:03:55.050Z,14.42
2022-07-28T04:06:57.084Z,14.40
2022-07-28T04:09:59.461Z,14.38
2022-07-28T04:13:02.053Z,14.40
2022-07-28T04:16:05.427Z,14.45
2022-07-28T04:19:08.763Z,14.44
2022-07-28T04:22:11.194Z,14.46
2022-07-28T04:25:14.560Z,14.46
2022-07-28T04:28:17.020Z,14.48
2022-07-28T04:31:19.729Z,14.45
2022-07-28T04:34:22.296Z,14.46
2022-07-28T04:37:24.444Z,14.51
2022-07-28T04:40:27.971Z,14.51
2022-07-28T04:43:30.103Z,14.57
2022-07-28T04:46:32.807Z,14.55
2022-07-28T04:49:35.619Z,14.57
2022-07-28T04:52:38.758Z,14.61
2022-07-28T04:55:40.940Z,14.65
2022-07-28T04:58:43.564Z,14.68
2022-07-28T05:01:47.274Z,14.79
2022-07-28T05:04:49.675Z,14.83
2022-07-28T05:07:51.715Z,14.92
2022-07-28T05:10:55.483Z,15.03
2022-07-28T05:13:57.464Z,15.18
2022-07-28T05:17:00.049Z,15.26
2022-07-28T05:20:03.230Z,15.37
2022-07-28T05:23:05.913Z,15.44
2022-07-28T05:26:07.933Z,15.53
2022-07-28T05:29:10.411Z,15.60
2022-07-28T05:32:17.222Z,15.66
2022-07-28T05:35:20.075Z,15.67
2022-07-28T05:38:22.465Z,15.70
2022-07-28T05:41:25.067Z,15.70
2022-07-28T05:44:26.958Z,15.74
2022-07-28T05:47:29.396Z,15.80
2022-07-28T05:50:31.583Z,16.01
2022-07-28T05:53:33.767Z,16.19
2022-07-28T05:56:35.941Z,16.38
2022-07-28T05:59:38.480Z,16.59
2022-07-28T06:02:42.008Z,16.84
2022-07-28T06:06:11.571Z,17.04
2022-07-28T06:09:07.339Z,17.19
2022-07-28T06:12:09.765Z,17.17
2022-07-28T06:15:16.852Z,17.38
2022-07-28T06:18:20.458Z,17.68
2022-07-28T06:21:25.879Z,18.02
2022-07-28T06:24:28.898Z,18.06
2022-07-28T06:27:30.968Z,18.16
2022-07-28T06:30:33.279Z,18.05
2022-07-28T06:33:35.871Z,17.95
2022-07-28T06:36:38.264Z,17.77
2022-07-28T06:39:40.213Z,17.81
2022-07-28T06:42:43.495Z,17.74
2022-07-28T06:45:46.046Z,17.71
2022-07-28T06:48:49.090Z,17.77
2022-07-28T06:51:52.819Z,17.95
2022-07-28T06:54:58.063Z,17.89
2022-07-28T06:58:00.598Z,18.04
2022-07-28T07:01:07.889Z,18.18
2022-07-28T07:04:10.578Z,18.79
2022-07-28T07:07:17.135Z,19.04
2022-07-28T07:10:19.417Z,18.93
2022-07-28T07:13:22.315Z,18.99
2022-07-28T07:16:24.452Z,19.38
2022-07-28T07:19:27.171Z,19.55
2022-07-28T07:22:29.317Z,19.78
2022-07-28T07:25:31.704Z,19.95
2022-07-28T07:28:34.875Z,20.46
2022-07-28T07:31:39.038Z,20.32
2022-07-28T07:34:41.306Z,20.20
2022-07-28T07:37:43.561Z,20.71
2022-07-28T07:40:45.712Z,20.77
2022-07-28T07:43:49.447Z,20.85
2022-07-28T07:46:52.642Z,21.38
2022-07-28T07:49:55.154Z,21.32
2022-07-28T07:52:57.191Z,21.52
2022-07-28T07:55:59.465Z,21.55
2022-07-28T07:59:01.551Z,21.18
2022-07-28T08:02:05.768Z,21.53
2022-07-28T08:05:09.551Z,22.30
2022-07-28T08:08:13.074Z,22.50
2022-07-28T08:11:15.003Z,21.65
2022-07-28T08:14:18.002Z,21.25
2022-07-28T08:17:25.674Z,21.37
2022-07-28T08:20:29.411Z,22.18
2022-07-28T08:23:31.622Z,23.06
2022-07-28T08:26:34.045Z,22.94
2022-07-28T08:29:37.273Z,22.99
2022-07-28T08:32:39.677Z,22.71
2022-07-28T08:35:42.084Z,23.52
2022-07-28T08:38:44.786Z,23.36
2022-07-28T08:41:54.287Z,23.59
2022-07-28T08:45:02.776Z,23.06
2022-07-28T08:48:08.596Z,23.56
2022-07-28T08:51:12.641Z,23.63
2022-07-28T08:54:22.608Z,22.75
2022-07-28T08:57:45.780Z,22.67
2022-07-28T09:00:48.240Z,22.91
2022-07-28T09:03:52.536Z,23.53
2022-07-28T09:06:55.945Z,23.62
2022-07-28T09:10:02.759Z,23.15
2022-07-28T09:13:05.461Z,22.57
2022-07-28T09:16:07.985Z,22.67
2022-07-28T09:19:10.085Z,23.15
2022-07-28T09:22:13.514Z,23.15
2022-07-28T09:25:19.184Z,23.96
2022-07-28T09:28:21.542Z,24.20
2022-07-28T09:31:26.284Z,24.67
2022-07-28T09:34:28.955Z,24.85
2022-07-28T09:37:31.736Z,24.58
2022-07-28T09:40:33.895Z,24.14
2022-07-28T09:43:38.150Z,24.86
2022-07-28T09:46:40.643Z,24.61
2022-07-28T09:49:44.483Z,25.03
2022-07-28T09:52:46.937Z,24.35
2022-07-28T09:55:57.997Z,24.98
2022-07-28T09:59:00.872Z,25.16
2022-07-28T10:02:04.003Z,25.73
2022-07-28T10:05:07.646Z,25.67
2022-07-28T10:08:09.719Z,24.86
2022-07-28T10:11:14.893Z,25.56
2022-07-28T10:14:21.737Z,25.25
2022-07-28T10:17:35.897Z,24.17
2022-07-28T10:20:38.764Z,23.66
2022-07-28T10:23:45.055Z,24.04
2022-07-28T10:26:48.376Z,23.14
2022-07-28T10:29:58.320Z,23.23
2022-07-28T10:33:05.631Z,23.57
2022-07-28T10:36:10.427Z,24.24
2022-07-28T10:39:16.115Z,25.02
2022-07-28T10:42:20.752Z,25.59
2022-07-28T10:45:32.623Z,26.55
2022-07-28T10:48:44.950Z,26.28
2022-07-28T10:52:08.973Z,25.59
2022-07-28T10:55:40.797Z,25.77
2022-07-28T10:58:49.879Z,25.54
2022-07-28T11:01:52.445Z,25.12
2022-07-28T11:04:56.778Z,25.80
2022-07-28T11:08:01.959Z,26.28
2022-07-28T11:11:09.151Z,26.37
2022-07-28T11:14:37.704Z,25.91
2022-07-28T11:17:57.576Z,26.02
2022-07-28T11:21:05.070Z,26.32
2022-07-28T11:24:10.040Z,26.39
2022-07-28T11:27:15.497Z,26.53
2022-07-28T11:30:32.328Z,26.29
2022-07-28T11:33:55.737Z,25.96
2022-07-28T11:36:58.133Z,25.57
2022-07-28T11:40:30.467Z,25.18
2022-07-28T11:43:36.169Z,25.98
2022-07-28T11:46:40.869Z,26.38
2022-07-28T11:49:44.557Z,26.90
2022-07-28T11:52:55.848Z,26.02
2022-07-28T11:56:02.988Z,26.27
2022-07-28T11:59:08.167Z,26.49
2022-07-28T12:02:10.888Z,26.14
2022-07-28T12:05:14.891Z,25.69
2022-07-28T12:08:18.525Z,26.20
2022-07-28T12:11:21.706Z,26.16
2022-07-28T12:14:24.370Z,25.84
2022-07-28T12:17:34.316Z,26.21
2022-07-28T12:20:45.065Z,26.59
2022-07-28T12:23:54.231Z,27.53
2022-07-28T12:27:00.988Z,28.11
2022-07-28T12:30:04.790Z,27.74
2022-07-28T12:33:17.921Z,27.49
2022-07-28T12:36:22.003Z,27.43
2022-07-28T12:39:26.257Z,26.72
2022-07-28T12:42:32.588Z,26.69
2022-07-28T12:45:46.641Z,27.12
2022-07-28T12:48:49.506Z,27.26
2022-07-28T12:51:52.806Z,27.34
2022-07-28T12:54:56.555Z,27.71
2022-07-28T12:58:00.443Z,28.07
2022-07-28T13:01:08.791Z,28.69
2022-07-28T13:04:11.616Z,28.09
2022-07-28T13:07:23.666Z,27.77
2022-07-28T13:10:29.088Z,27.61
2022-07-28T13:13:44.781Z,27.77
2022-07-28T13:16:58.232Z,27.17
2022-07-28T13:20:10.397Z,27.50
2022-07-28T13:23:12.612Z,27.36
2022-07-28T13:26:14.861Z,27.23
2022-07-28T13:29:17.117Z,27.30
2022-07-28T13:32:19.875Z,25.78
2022-07-28T13:35:22.843Z,24.95
2022-07-28T13:38:25.726Z,25.81
2022-07-28T13:41:57.049Z,24.61
2022-07-28T13:44:51.718Z,24.04
2022-07-28T13:47:58.165Z,24.00
2022-07-28T13:51:00.517Z,24.34
2022-07-28T13:54:03.725Z,24.50
2022-07-28T13:57:12.514Z,24.37
2022-07-28T14:00:17.111Z,24.68
2022-07-28T14:03:19.503Z,25.33
2022-07-28T14:06:21.544Z,25.66
2022-07-28T14:09:24.715Z,25.47
2022-07-28T14:12:26.928Z,24.91
2022-07-28T14:15:30.396Z,24.14
2022-07-28T14:18:33.029Z,23.48
2022-07-28T14:21:35.398Z,23.18
2022-07-28T14:24:38.477Z,23.08
2022-07-28T14:27:41.508Z,22.94
2022-07-28T14:30:43.507Z,23.04
2022-07-28T14:33:50.784Z,22.72
2022-07-28T14:36:56.667Z,22.69
2022-07-28T14:39:59.130Z,22.67
2022-07-28T14:43:01.747Z,22.68
2022-07-28T14:46:20.853Z,23.19
2022-07-28T14:49:24.053Z,23.42
2022-07-28T14:52:28.341Z,23.20
2022-07-28T14:55:31.907Z,22.74
2022-07-28T14:58:34.991Z,22.50
2022-07-28T15:01:36.940Z,22.39
2022-07-28T15:04:40.399Z,22.37
2022-07-28T15:07:42.719Z,22.63
2022-07-28T15:10:45.067Z,22.87
2022-07-28T15:13:51.392Z,22.76
2022-07-28T15:16:53.971Z,22.45
2022-07-28T15:19:57.053Z,22.47
2022-07-28T15:22:59.368Z,22.40
2022-07-28T15:26:01.652Z,22.13
2022-07-28T15:29:05.341Z,21.96
2022-07-28T15:32:07.753Z,21.63
2022-07-28T15:35:13.311Z,21.65
2022-07-28T15:38:15.604Z,21.66
2022-07-28T15:41:18.910Z,21.56
2022-07-28T15:44:25.782Z,21.27
2022-07-28T15:47:29.027Z,21.18
2022-07-28T15:50:31.577Z,21.17
2022-07-28T15:53:35.489Z,21.04
2022-07-28T15:56:37.758Z,21.01
2022-07-28T15:59:49.212Z,21.25
2022-07-28T16:02:55.203Z,21.28
2022-07-28T16:05:58.866Z,21.35
2022-07-28T16:09:03.352Z,21.34
2022-07-28T16:12:06.656Z,21.28
2022-07-28T16:15:14.971Z,21.32
2022-07-28T16:18:17.316Z,21.28
2022-07-28T16:21:19.538Z,21.38
2022-07-28T16:24:26.580Z,21.29
2022-07-28T16:27:28.838Z,21.12
2022-07-28T16:30:33.648Z,21.09
2022-07-28T16:33:35.860Z,21.01
2022-07-28T16:36:40.029Z,20.92
2022-07-28T16:39:44.230Z,20.97
2022-07-28T16:42:46.481Z,20.95
2022-07-28T16:45:48.983Z,20.85
2022-07-28T16:48:52.322Z,20.77
2022-07-28T16:51:55.825Z,20.66
2022-07-28T16:54:58.236Z,20.70
2022-07-28T16:58:00.390Z,20.66
2022-07-28T17:01:03.728Z,20.64
2022-07-28T17:04:06.104Z,20.61
2022-07-28T17:07:08.797Z,20.54
2022-07-28T17:10:12.751Z,20.51
2022-07-28T17:13:16.458Z,20.48
2022-07-28T17:16:18.964Z,20.43
2022-07-28T17:19:22.477Z,20.39
2022-07-28T17:22:25.192Z,20.33
2022-07-28T17:25:47.654Z,20.32
2022-07-28T17:28:50.501Z,20.23
2022-07-28T17:31:52.977Z,20.20
2022-07-28T17:34:55.673Z,20.16
2022-07-28T17:37:59.877Z,20.17
2022-07-28T17:41:04.499Z,20.17
2022-07-28T17:44:07.318Z,20.22
2022-07-28T17:47:09.857Z,20.17
2022-07-28T17:50:16.336Z,20.16
2022-07-28T17:53:23.839Z,20.10
2022-07-28T17:56:26.724Z,20.08
2022-07-28T17:59:50.937Z,20.10
2022-07-28T18:02:55.139Z,20.05
2022-07-28T18:05:58.733Z,19.97
2022-07-28T18:09:08.221Z,19.96
2022-07-28T18:12:12.043Z,19.89
2022-07-28T18:15:14.188Z,19.82
2022-07-28T18:18:17.454Z,19.76
2022-07-28T18:21:20.252Z,19.68
2022-07-28T18:24:23.239Z,19.66
2022-07-28T18:27:25.992Z,19.62
2022-07-28T18:30:28.536Z,19.62
2022-07-28T18:33:31.308Z,19.55
2022-07-28T18:36:33.655Z,19.50
2022-07-28T18:39:35.881Z,19.50
2022-07-28T18:42:38.945Z,19.48
2022-07-28T18:45:41.741Z,19.42
2022-07-28T18:48:43.851Z,19.39
2022-07-28T18:51:46.201Z,19.38
2022-07-28T18:54:49.380Z,19.27
2022-07-28T18:57:52.810Z,19.24
2022-07-28T19:00:55.105Z,19.15
2022-07-28T19:03:57.873Z,19.14
2022-07-28T19:06:59.883Z,19.11
2022-07-28T19:10:02.690Z,19.10
2022-07-28T19:13:05.354Z,19.12
2022-07-28T19:16:13.586Z,19.10
2022-07-28T19:19:18.101Z,19.00
2022-07-28T19:22:26.460Z,18.91
2022-07-28T19:25:30.435Z,18.90
2022-07-28T19:28:32.956Z,18.83
2022-07-28T19:31:35.242Z,18.87
2022-07-28T19:34:37.719Z,18.80
2022-07-28T19:37:40.096Z,18.67
2022-07-28T19:40:43.474Z,18.71
2022-07-28T19:43:45.608Z,18.69
2022-07-28T19:46:48.892Z,18.59
2022-07-28T19:49:50.972Z,18.59
2022-07-28T19:52:53.407Z,18.57
2022-07-28T19:55:56.363Z,18.52
2022-07-28T19:59:00.199Z,18.45
2022-07-28T20:02:02.654Z,18.42
2022-07-28T20:05:06.496Z,18.45
2022-07-28T20:08:09.378Z,18.40
2022-07-28T20:11:13.784Z,18.53
2022-07-28T20:14:16.854Z,18.46
2022-07-28T20:17:36.993Z,18.40
2022-07-28T20:20:42.283Z,18.35
2022-07-28T20:23:45.732Z,18.40
2022-07-28T20:26:48.169Z,18.46
2022-07-28T20:29:50.414Z,18.40
2022-07-28T20:32:52.596Z,18.39
2022-07-28T20:35:57.038Z,18.37
2022-07-28T20:38:59.750Z,18.35
2022-07-28T20:42:05.940Z,18.32
2022-07-28T20:45:11.571Z,18.28
2022-07-28T20:48:15.669Z,18.22
2022-07-28T20:51:19.256Z,18.21
2022-07-28T20:54:22.467Z,18.15
2022-07-28T20:57:24.527Z,18.12
2022-07-28T21:00:27.188Z,18.09
2022-07-28T21:03:29.287Z,18.08
2022-07-28T21:06:32.364Z,18.04
2022-07-28T21:09:35.304Z,18.09
2022-07-28T21:12:38.930Z,18.10
2022-07-28T21:15:41.174Z,18.10
2022-07-28T21:18:44.034Z,18.09
2022-07-28T21:21:46.256Z,18.09
2022-07-28T21:24:53.205Z,18.02
2022-07-28T21:28:16.612Z,18.01
2022-07-28T21:31:18.982Z,17.99
2022-07-28T21:34:21.082Z,17.94
2022-07-28T21:37:23.596Z,17.98
2022-07-28T21:40:25.778Z,17.94
2022-07-28T21:43:29.043Z,17.88
2022-07-28T21:46:32.736Z,17.91
2022-07-28T21:49:35.050Z,17.94
2022-07-28T21:52:38.128Z,17.88
2022-07-28T21:55:40.743Z,17.96
2022-07-28T21:58:43.849Z,17.99
2022-07-28T22:01:46.361Z,17.95
2022-07-28T22:04:48.482Z,17.86
2022-07-28T22:07:52.423Z,17.98
2022-07-28T22:10:54.736Z,17.92
2022-07-28T22:13:57.115Z,17.78
2022-07-28T22:17:02.804Z,17.74
2022-07-28T22:20:06.159Z,17.71
2022-07-28T22:23:12.247Z,17.67
2022-07-28T22:26:31.142Z,17.57
2022-07-28T22:29:33.536Z,17.44
2022-07-28T22:32:36.141Z,17.37
2022-07-28T22:35:39.052Z,17.33
2022-07-28T22:38:41.564Z,17.27
2022-07-28T22:41:43.584Z,17.30
2022-07-28T22:44:49.204Z,17.30
2022-07-28T22:47:51.169Z,17.34
2022-07-28T22:50:53.873Z,17.24
2022-07-28T22:53:57.445Z,17.23
2022-07-28T22:56:59.891Z,17.30
2022-07-28T23:00:02.073Z,17.27
2022-07-28T23:03:05.496Z,17.21
2022-07-28T23:06:09.376Z,17.20
2022-07-28T23:09:13.036Z,17.17
2022-07-28T23:12:15.073Z,17.14
2022-07-28T23:15:17.400Z,17.19
2022-07-28T23:18:19.471Z,17.17
2022-07-28T23:21:22.260Z,17.13
2022-07-28T23:24:24.407Z,17.14
2022-07-28T23:27:26.631Z,17.16
2022-07-28T23:30:29.000Z,17.16
2022-07-28T23:33:55.469Z,17.09
2022-07-28T23:36:53.599Z,17.09
2022-07-28T23:39:56.134Z,17.06
2022-07-28T23:42:58.318Z,17.02
2022-07-28T23:46:00.606Z,16.93
2022-07-28T23:49:02.723Z,16.93
2022-07-28T23:52:05.399Z,16.97
2022-07-28T23:55:07.943Z,17.06
2022-07-28T23:58:10.121Z,16.94
